Time;durP1;ratioP1;P1;durP2;ratioP2;P2;SDS_P1;SDS_P2;PMS_P1;PMS_P2;Temp;Humidity;BMP_temperature;BMP_pressure;BME280_temperature;BME280_humidity;BME280_pressure;Samples;Min_cycle;Max_cycle;Signal;HPM_P1;HPM_P2
2022/04/07 00:01:04;;;;;;;;;;;8.60;99.90;;;;;;5100487;28;19967;-66
2022/04/07 00:03:31;;;;;;;;;;;8.70;99.90;;;;;;5108021;28;19934;-67
2022/04/07 00:06:09;;;;;;;;;;;8.70;99.90;;;;;;5101934;28;19927;-67
2022/04/07 00:08:40;;;;;;;;;;;8.80;99.90;;;;;;5100500;28;20370;-67
2022/04/07 00:11:07;;;;;;;;;;;8.80;99.90;;;;;;5099984;28;20014;-67
2022/04/07 00:13:34;;;;;;;;;;;8.80;99.90;;;;;;5101349;28;20064;-67
2022/04/07 00:16:07;;;;;;;;;;;8.80;99.90;;;;;;5092281;28;19992;-67
2022/04/07 00:18:34;;;;;;;;;;;8.70;99.90;;;;;;5104972;28;19928;-67
2022/04/07 00:21:11;;;;;;;;;;;8.70;99.90;;;;;;5090003;28;19927;-67
2022/04/07 00:23:40;;;;;;;;;;;8.70;99.90;;;;;;5091519;28;19931;-67
2022/04/07 00:26:07;;;;;;;;;;;8.60;99.90;;;;;;5092213;28;19928;-67
2022/04/07 00:28:34;;;;;;;;;;;8.40;99.90;;;;;;5075514;28;19949;-68
2022/04/07 00:31:01;;;;;;;;;;;8.50;99.90;;;;;;5095491;28;19967;-68
2022/04/07 00:33:27;;;;;;;;;;;8.50;99.90;;;;;;5110576;28;19927;-68
2022/04/07 00:35:54;;;;;;;;;;;8.50;99.90;;;;;;5105448;28;20014;-68
2022/04/07 00:38:21;;;;;;;;;;;8.50;99.90;;;;;;5104048;28;19970;-68
2022/04/07 00:40:48;;;;;;;;;;;8.40;99.90;;;;;;5109506;28;19930;-68
2022/04/07 00:43:34;;;;;;;;;;;8.30;99.90;;;;;;5098811;28;20014;-67
2022/04/07 00:46:00;;;;;;;;;;;8.30;99.90;;;;;;5097900;28;19934;-67
2022/04/07 00:48:27;;;;;;;;;;;8.30;99.90;;;;;;5078937;28;19990;-67
2022/04/07 00:50:54;;;;;;;;;;;8.20;99.90;;;;;;5102816;28;19959;-67
2022/04/07 00:53:22;;;;;;;;;;;8.20;99.90;;;;;;5107863;28;19932;-67
2022/04/07 00:55:50;;;;;;;;;;;8.20;99.90;;;;;;5098796;28;20035;-67
2022/04/07 00:58:18;;;;;;;;;;;8.20;99.90;;;;;;5098610;28;20297;-67
2022/04/07 01:00:47;;;;;;;;;;;8.30;99.90;;;;;;5111356;28;19924;-67
2022/04/07 01:03:14;;;;;;;;;;;8.30;99.90;;;;;;5105597;28;19971;-67
2022/04/07 01:05:40;;;;;;;;;;;8.30;99.90;;;;;;5099561;28;19924;-67
2022/04/07 01:08:08;;;;;;;;;;;8.40;99.90;;;;;;5108925;28;20633;-67
2022/04/07 01:10:35;;;;;;;;;;;8.40;99.90;;;;;;5103172;28;20586;-67
2022/04/07 01:13:15;;;;;;;;;;;8.40;99.90;;;;;;5088742;28;19932;-67
2022/04/07 01:15:42;;;;;;;;;;;8.60;99.90;;;;;;5108703;28;19963;-67
2022/04/07 01:18:12;;;;;;;;;;;8.70;99.90;;;;;;5084707;28;19970;-67
2022/04/07 01:20:39;;;;;;;;;;;8.80;99.90;;;;;;5074495;28;19924;-67
2022/04/07 01:23:07;;;;;;;;;;;8.80;99.90;;;;;;5102506;28;19924;-67
2022/04/07 01:25:34;;;;;;;;;;;8.70;99.90;;;;;;5098324;28;19967;-67
2022/04/07 01:28:01;;;;;;;;;;;8.70;99.90;;;;;;5105360;28;19924;-67
2022/04/07 01:30:31;;;;;;;;;;;8.60;99.90;;;;;;5108012;28;19931;-67
2022/04/07 01:32:58;;;;;;;;;;;8.60;99.90;;;;;;5097346;28;19979;-67
2022/04/07 01:35:26;;;;;;;;;;;8.60;99.90;;;;;;5103705;28;19924;-67
2022/04/07 01:37:53;;;;;;;;;;;8.70;99.90;;;;;;5107443;28;20386;-67
2022/04/07 01:40:26;;;;;;;;;;;8.80;99.90;;;;;;5112002;28;19967;-68
2022/04/07 01:42:55;;;;;;;;;;;8.90;99.90;;;;;;5094818;28;19993;-68
2022/04/07 01:45:22;;;;;;;;;;;8.90;99.90;;;;;;5099294;28;20488;-67
2022/04/07 01:47:49;;;;;;;;;;;8.90;99.90;;;;;;5096251;28;20019;-66
2022/04/07 01:50:16;;;;;;;;;;;9.00;99.90;;;;;;5107249;28;19924;-67
2022/04/07 01:52:43;;;;;;;;;;;9.10;99.90;;;;;;5111882;28;19963;-67
2022/04/07 01:55:10;;;;;;;;;;;9.20;99.90;;;;;;5113358;28;19970;-66
2022/04/07 01:57:37;;;;;;;;;;;9.20;99.90;;;;;;5085741;28;19923;-66
2022/04/07 02:00:05;;;;;;;;;;;9.20;99.90;;;;;;5093903;28;20378;-67
2022/04/07 02:02:31;;;;;;;;;;;9.30;99.90;;;;;;5104778;28;20317;-66
2022/04/07 02:04:59;;;;;;;;;;;9.30;99.90;;;;;;5110738;28;20018;-68
2022/04/07 02:07:30;;;;;;;;;;;9.30;99.90;;;;;;5109884;28;20010;-67
2022/04/07 02:09:59;;;;;;;;;;;9.30;99.90;;;;;;5085933;28;19924;-67
2022/04/07 02:12:27;;;;;;;;;;;9.20;99.90;;;;;;5114325;28;19930;-67
2022/04/07 02:14:54;;;;;;;;;;;9.10;99.90;;;;;;5110411;28;20402;-68
2022/04/07 02:17:20;;;;;;;;;;;9.00;99.90;;;;;;5111010;28;20275;-67
2022/04/07 02:19:49;;;;;;;;;;;8.80;99.90;;;;;;5101705;28;20429;-68
2022/04/07 02:22:16;;;;;;;;;;;8.70;99.90;;;;;;5092222;28;19924;-68
2022/04/07 02:24:43;;;;;;;;;;;8.60;99.90;;;;;;5103511;28;19952;-68
2022/04/07 02:27:10;;;;;;;;;;;8.60;99.90;;;;;;5112213;28;19924;-67
2022/04/07 02:29:37;;;;;;;;;;;8.60;99.90;;;;;;5089432;28;20396;-67
2022/04/07 02:32:04;;;;;;;;;;;8.70;99.90;;;;;;5108127;28;20540;-67
2022/04/07 02:34:31;;;;;;;;;;;8.70;99.90;;;;;;5104678;28;19928;-67
2022/04/07 02:36:58;;;;;;;;;;;8.80;99.90;;;;;;5102005;28;20316;-68
2022/04/07 02:39:24;;;;;;;;;;;8.80;99.90;;;;;;5104670;28;20014;-68
2022/04/07 02:41:54;;;;;;;;;;;8.80;99.90;;;;;;5105173;28;19978;-67
2022/04/07 02:44:23;;;;;;;;;;;8.80;99.90;;;;;;5108819;28;19978;-67
2022/04/07 02:46:50;;;;;;;;;;;8.80;99.90;;;;;;5112219;28;19934;-67
2022/04/07 02:49:20;;;;;;;;;;;8.80;99.90;;;;;;5108876;28;19924;-68
2022/04/07 02:51:46;;;;;;;;;;;8.80;99.90;;;;;;5101900;28;20022;-67
2022/04/07 02:54:14;;;;;;;;;;;8.80;99.90;;;;;;5107704;28;19924;-68
2022/04/07 02:56:40;;;;;;;;;;;8.80;99.90;;;;;;5089269;28;19923;-66
2022/04/07 02:59:07;;;;;;;;;;;8.80;99.90;;;;;;5098585;28;19924;-69
2022/04/07 03:01:33;;;;;;;;;;;8.80;99.90;;;;;;5089761;28;19924;-68
2022/04/07 03:04:00;;;;;;;;;;;8.80;99.90;;;;;;5113392;28;19930;-68
2022/04/07 03:06:27;;;;;;;;;;;8.80;99.90;;;;;;5108239;28;19923;-68
2022/04/07 03:08:53;;;;;;;;;;;8.80;99.90;;;;;;5092722;28;19924;-68
2022/04/07 03:11:20;;;;;;;;;;;8.80;99.90;;;;;;5100308;28;20374;-68
2022/04/07 03:13:47;;;;;;;;;;;8.70;99.90;;;;;;5106856;28;19924;-69
2022/04/07 03:16:13;;;;;;;;;;;8.70;99.90;;;;;;5096481;28;19924;-69
2022/04/07 03:18:40;;;;;;;;;;;8.70;99.90;;;;;;5108138;28;19955;-68
2022/04/07 03:21:07;;;;;;;;;;;8.80;99.90;;;;;;5083972;28;20031;-68
2022/04/07 03:23:33;;;;;;;;;;;8.80;99.90;;;;;;5112356;28;19959;-68
2022/04/07 03:26:03;;;;;;;;;;;8.80;99.90;;;;;;5112118;28;19986;-68
2022/04/07 03:28:30;;;;;;;;;;;8.80;99.90;;;;;;5112026;28;20409;-68
2022/04/07 03:30:57;;;;;;;;;;;8.70;99.90;;;;;;5110240;28;19978;-68
2022/04/07 03:33:24;;;;;;;;;;;8.70;99.90;;;;;;5103739;28;20024;-68
2022/04/07 03:35:50;;;;;;;;;;;8.70;99.90;;;;;;5099961;28;19998;-68
2022/04/07 03:38:17;;;;;;;;;;;8.70;99.90;;;;;;5090322;28;19991;-68
2022/04/07 03:40:44;;;;;;;;;;;8.70;99.90;;;;;;5106510;28;20022;-68
2022/04/07 03:43:10;;;;;;;;;;;8.70;99.90;;;;;;5107192;28;20005;-68
2022/04/07 03:45:39;;;;;;;;;;;8.70;99.90;;;;;;5106129;28;20398;-68
2022/04/07 03:48:07;;;;;;;;;;;8.70;99.90;;;;;;5104134;28;19924;-68
2022/04/07 03:50:34;;;;;;;;;;;8.70;99.90;;;;;;5094547;28;20425;-68
2022/04/07 03:53:01;;;;;;;;;;;8.80;99.90;;;;;;5076936;28;20352;-68
2022/04/07 03:55:27;;;;;;;;;;;8.80;99.90;;;;;;5107681;28;20019;-68
2022/04/07 03:57:54;;;;;;;;;;;8.90;99.90;;;;;;5102128;28;19927;-68
2022/04/07 04:00:25;;;;;;;;;;;8.90;99.90;;;;;;5104289;28;20374;-68
2022/04/07 04:02:52;;;;;;;;;;;9.00;99.90;;;;;;5102328;28;20013;-68
2022/04/07 04:05:19;;;;;;;;;;;9.00;99.90;;;;;;5101596;28;20370;-68
2022/04/07 04:07:46;;;;;;;;;;;9.00;99.90;;;;;;5111919;28;19970;-68
2022/04/07 04:10:12;;;;;;;;;;;9.10;99.90;;;;;;5106736;28;20014;-68
2022/04/07 04:12:39;;;;;;;;;;;9.10;99.90;;;;;;5105806;28;19924;-68
2022/04/07 04:15:06;;;;;;;;;;;9.10;99.90;;;;;;5103009;28;19938;-68
2022/04/07 04:17:33;;;;;;;;;;;9.10;99.90;;;;;;5103799;28;19927;-68
2022/04/07 04:20:01;;;;;;;;;;;9.10;99.90;;;;;;5106756;28;19924;-68
2022/04/07 04:22:28;;;;;;;;;;;9.00;99.90;;;;;;5076234;28;20005;-68
2022/04/07 04:24:55;;;;;;;;;;;9.00;99.90;;;;;;5083942;28;20311;-68
2022/04/07 04:27:22;;;;;;;;;;;9.00;99.90;;;;;;5109039;27;20304;-68
2022/04/07 04:29:48;;;;;;;;;;;9.10;99.90;;;;;;5106511;28;20018;-68
2022/04/07 04:32:15;;;;;;;;;;;9.10;99.90;;;;;;5109515;28;19983;-68
2022/04/07 04:34:42;;;;;;;;;;;9.10;99.90;;;;;;5106809;28;20373;-69
2022/04/07 04:37:08;;;;;;;;;;;9.10;99.90;;;;;;5108132;27;19970;-68
2022/04/07 04:39:36;;;;;;;;;;;9.00;99.90;;;;;;5111142;28;19924;-68
2022/04/07 04:42:04;;;;;;;;;;;8.90;99.90;;;;;;5106887;28;19974;-68
2022/04/07 04:44:31;;;;;;;;;;;8.80;99.90;;;;;;5104429;28;19934;-68
2022/04/07 04:47:01;;;;;;;;;;;8.80;99.90;;;;;;5090584;28;20004;-68
2022/04/07 04:49:30;;;;;;;;;;;8.80;99.90;;;;;;5095419;28;20382;-68
2022/04/07 04:51:59;;;;;;;;;;;8.80;99.90;;;;;;5105437;28;20362;-68
2022/04/07 04:54:26;;;;;;;;;;;8.90;99.90;;;;;;5111817;28;20014;-68
2022/04/07 04:56:55;;;;;;;;;;;8.90;99.90;;;;;;5107288;28;19957;-68
2022/04/07 04:59:24;;;;;;;;;;;8.90;99.90;;;;;;5100897;28;19936;-68
2022/04/07 05:01:51;;;;;;;;;;;8.90;99.90;;;;;;5094118;28;20441;-68
2022/04/07 05:04:18;;;;;;;;;;;8.90;99.90;;;;;;5109860;28;19931;-67
2022/04/07 05:06:45;;;;;;;;;;;8.90;99.90;;;;;;5100855;28;20286;-68
2022/04/07 05:09:12;;;;;;;;;;;8.90;99.90;;;;;;5105182;28;19924;-68
2022/04/07 05:11:41;;;;;;;;;;;8.90;99.90;;;;;;5110200;28;19930;-68
2022/04/07 05:14:07;;;;;;;;;;;9.00;99.90;;;;;;5104703;28;19931;-68
2022/04/07 05:16:34;;;;;;;;;;;9.00;99.90;;;;;;5107598;28;20617;-68
2022/04/07 05:19:04;;;;;;;;;;;9.00;99.90;;;;;;5103888;28;19924;-69
2022/04/07 05:21:34;;;;;;;;;;;9.00;99.90;;;;;;5079618;28;19924;-68
2022/04/07 05:24:01;;;;;;;;;;;9.10;99.90;;;;;;5091785;28;19924;-68
2022/04/07 05:26:28;;;;;;;;;;;9.10;99.90;;;;;;5096217;28;19959;-67
2022/04/07 05:28:54;;;;;;;;;;;9.10;99.90;;;;;;5106044;27;19928;-68
2022/04/07 05:31:21;;;;;;;;;;;9.20;99.90;;;;;;5099143;28;19982;-68
2022/04/07 05:33:48;;;;;;;;;;;9.20;99.90;;;;;;5078173;28;19924;-68
2022/04/07 05:36:16;;;;;;;;;;;9.30;99.90;;;;;;5095212;28;19944;-68
2022/04/07 05:38:44;;;;;;;;;;;9.30;99.90;;;;;;5098514;28;19971;-68
2022/04/07 05:41:11;;;;;;;;;;;9.30;99.90;;;;;;5106336;27;19924;-68
2022/04/07 05:43:38;;;;;;;;;;;9.40;99.90;;;;;;5099372;28;20007;-68
2022/04/07 05:46:04;;;;;;;;;;;9.40;99.90;;;;;;5102023;28;19923;-67
2022/04/07 05:48:31;;;;;;;;;;;9.50;99.90;;;;;;5107492;28;20431;-68
2022/04/07 05:51:01;;;;;;;;;;;9.50;99.90;;;;;;5113487;28;20006;-68
2022/04/07 05:53:27;;;;;;;;;;;9.40;99.90;;;;;;5109540;27;19923;-68
2022/04/07 05:55:58;;;;;;;;;;;9.40;99.90;;;;;;5109875;27;20736;-68
2022/04/07 05:58:25;;;;;;;;;;;9.30;99.90;;;;;;5120315;27;19934;-68
2022/04/07 06:00:52;;;;;;;;;;;9.30;99.90;;;;;;5097677;28;19930;-68
2022/04/07 06:03:18;;;;;;;;;;;9.30;99.90;;;;;;5107881;28;19927;-68
2022/04/07 06:05:45;;;;;;;;;;;9.30;99.90;;;;;;5110744;28;19938;-68
2022/04/07 06:08:12;;;;;;;;;;;9.20;99.90;;;;;;5108753;27;19924;-67
2022/04/07 06:10:41;;;;;;;;;;;9.20;99.90;;;;;;5089733;27;20402;-68
2022/04/07 06:13:09;;;;;;;;;;;9.20;99.90;;;;;;5096741;28;19924;-68
2022/04/07 06:15:36;;;;;;;;;;;9.20;99.90;;;;;;5110411;27;20290;-68
2022/04/07 06:18:02;;;;;;;;;;;9.20;99.90;;;;;;5096447;28;19967;-68
2022/04/07 06:20:29;;;;;;;;;;;9.20;99.90;;;;;;5103274;28;20455;-68
2022/04/07 06:22:56;;;;;;;;;;;9.30;99.90;;;;;;5098584;28;20007;-68
2022/04/07 06:25:22;;;;;;;;;;;9.30;99.90;;;;;;5107853;27;19930;-68
2022/04/07 06:27:49;;;;;;;;;;;9.40;99.90;;;;;;5104275;28;19926;-68
2022/04/07 06:30:17;;;;;;;;;;;9.40;99.90;;;;;;5102105;28;19956;-68
2022/04/07 06:32:44;;;;;;;;;;;9.50;99.90;;;;;;5084750;28;19923;-68
2022/04/07 06:35:11;;;;;;;;;;;9.50;99.90;;;;;;5102841;28;20537;-68
2022/04/07 06:37:56;;;;;;;;;;;9.60;99.90;;;;;;5108148;28;19946;-68
2022/04/07 06:40:26;;;;;;;;;;;9.60;99.90;;;;;;5109273;28;19923;-68
2022/04/07 06:42:54;;;;;;;;;;;9.60;99.90;;;;;;5088254;28;20019;-69
2022/04/07 06:45:24;;;;;;;;;;;9.60;99.90;;;;;;5104411;28;19932;-68
2022/04/07 06:47:51;;;;;;;;;;;9.70;99.90;;;;;;5090803;28;19971;-68
2022/04/07 06:50:19;;;;;;;;;;;9.70;99.90;;;;;;5099455;28;20590;-68
2022/04/07 06:52:45;;;;;;;;;;;9.60;99.90;;;;;;5086269;28;20002;-68
2022/04/07 06:55:13;;;;;;;;;;;9.60;99.90;;;;;;5099302;28;20512;-67
2022/04/07 06:57:48;;;;;;;;;;;9.50;99.90;;;;;;5105092;28;20006;-68
2022/04/07 07:00:17;;;;;;;;;;;9.40;99.90;;;;;;5102520;28;19932;-68
2022/04/07 07:02:47;;;;;;;;;;;9.50;99.90;;;;;;5100836;28;20377;-68
2022/04/07 07:05:14;;;;;;;;;;;9.60;99.90;;;;;;5105217;28;20015;-68
2022/04/07 07:07:41;;;;;;;;;;;9.60;99.90;;;;;;5100639;28;19927;-68
2022/04/07 07:10:20;;;;;;;;;;;9.80;99.90;;;;;;5096375;27;20010;-68
2022/04/07 07:12:47;;;;;;;;;;;9.80;99.90;;;;;;5099753;28;19924;-68
2022/04/07 07:15:14;;;;;;;;;;;9.90;99.90;;;;;;5100690;27;20030;-68
2022/04/07 07:17:41;;;;;;;;;;;9.90;99.90;;;;;;5089065;28;19935;-68
2022/04/07 07:20:10;;;;;;;;;;;9.90;99.90;;;;;;5101326;28;20022;-69
2022/04/07 07:22:38;;;;;;;;;;;10.00;99.90;;;;;;5104161;28;19923;-68
2022/04/07 07:25:06;;;;;;;;;;;10.00;99.90;;;;;;5103916;28;20003;-68
2022/04/07 07:27:39;;;;;;;;;;;10.00;99.90;;;;;;5098518;28;20442;-68
2022/04/07 07:30:09;;;;;;;;;;;10.00;99.90;;;;;;5101331;28;19985;-68
2022/04/07 07:32:36;;;;;;;;;;;10.00;99.90;;;;;;5104563;27;20006;-68
2022/04/07 07:35:04;;;;;;;;;;;10.00;99.90;;;;;;5086812;28;19947;-68
2022/04/07 07:37:30;;;;;;;;;;;10.00;99.90;;;;;;5102295;28;20018;-68
2022/04/07 07:40:02;;;;;;;;;;;10.00;99.90;;;;;;5088046;28;19923;-68
2022/04/07 07:42:28;;;;;;;;;;;10.00;99.90;;;;;;5102351;27;20015;-68
2022/04/07 07:44:55;;;;;;;;;;;10.00;99.90;;;;;;5104713;27;20468;-68
2022/04/07 07:47:22;;;;;;;;;;;10.00;99.90;;;;;;5094325;28;19932;-68
2022/04/07 07:49:48;;;;;;;;;;;9.90;99.90;;;;;;5097848;27;19923;-68
2022/04/07 07:52:15;;;;;;;;;;;9.90;99.90;;;;;;5104965;28;19931;-68
2022/04/07 07:54:42;;;;;;;;;;;9.90;99.90;;;;;;5100841;28;20006;-68
2022/04/07 07:57:08;;;;;;;;;;;9.90;99.90;;;;;;5098762;28;19975;-68
2022/04/07 07:59:35;;;;;;;;;;;9.80;99.90;;;;;;5099304;28;19942;-68
2022/04/07 08:02:02;;;;;;;;;;;9.70;99.90;;;;;;5103014;27;19970;-67
2022/04/07 08:04:28;;;;;;;;;;;9.70;99.90;;;;;;5096521;28;20463;-69
2022/04/07 08:06:55;;;;;;;;;;;9.60;99.90;;;;;;5094386;27;19934;-68
2022/04/07 08:09:22;;;;;;;;;;;9.50;99.90;;;;;;5101210;27;20010;-68
2022/04/07 08:11:48;;;;;;;;;;;9.50;99.90;;;;;;5101442;27;19961;-67
2022/04/07 08:14:17;;;;;;;;;;;9.50;99.90;;;;;;5090307;28;19946;-67
2022/04/07 08:16:44;;;;;;;;;;;9.50;99.90;;;;;;5107868;27;19932;-67
2022/04/07 08:19:11;;;;;;;;;;;9.50;99.90;;;;;;5083686;28;19923;-67
2022/04/07 08:21:37;;;;;;;;;;;9.60;99.90;;;;;;5096083;28;19924;-68
2022/04/07 08:24:04;;;;;;;;;;;9.70;99.90;;;;;;5100901;28;20031;-68
2022/04/07 08:26:31;;;;;;;;;;;9.70;99.90;;;;;;5081782;28;20022;-68
2022/04/07 08:29:01;;;;;;;;;;;9.70;99.90;;;;;;5105032;27;20332;-67
2022/04/07 08:31:27;;;;;;;;;;;9.60;99.90;;;;;;5097053;28;19946;-68
2022/04/07 08:33:54;;;;;;;;;;;9.70;99.90;;;;;;5106785;27;19932;-68
2022/04/07 08:36:24;;;;;;;;;;;9.70;99.90;;;;;;5096740;28;19924;-67
2022/04/07 08:38:50;;;;;;;;;;;9.70;99.90;;;;;;5102892;27;19935;-67
2022/04/07 08:41:17;;;;;;;;;;;9.70;99.90;;;;;;5106395;28;19932;-67
2022/04/07 08:43:44;;;;;;;;;;;9.80;99.90;;;;;;5101453;28;19974;-68
2022/04/07 08:46:13;;;;;;;;;;;9.80;99.90;;;;;;5100625;28;19928;-67
2022/04/07 08:48:42;;;;;;;;;;;9.90;99.90;;;;;;5093659;28;20348;-67
2022/04/07 08:51:12;;;;;;;;;;;9.90;99.90;;;;;;5100696;28;20015;-67
2022/04/07 08:53:39;;;;;;;;;;;9.90;99.90;;;;;;5092709;28;19934;-68
2022/04/07 08:56:06;;;;;;;;;;;9.90;99.90;;;;;;5099837;28;19932;-67
2022/04/07 08:58:35;;;;;;;;;;;9.80;99.90;;;;;;5096942;28;19935;-67
2022/04/07 09:01:02;;;;;;;;;;;9.90;99.90;;;;;;5092397;28;20011;-67
2022/04/07 09:03:29;;;;;;;;;;;9.90;99.90;;;;;;5100353;28;20442;-68
2022/04/07 09:05:57;;;;;;;;;;;10.00;99.90;;;;;;5104615;28;20378;-75
2022/04/07 09:08:29;;;;;;;;;;;10.00;99.90;;;;;;5097641;28;19963;-80
2022/04/07 09:10:56;;;;;;;;;;;10.00;99.90;;;;;;5102740;28;20294;-76
2022/04/07 09:13:23;;;;;;;;;;;10.00;99.90;;;;;;5098288;28;19999;-78
2022/04/07 09:15:50;;;;;;;;;;;10.00;99.90;;;;;;5112825;28;19928;-77
2022/04/07 09:18:26;;;;;;;;;;;10.00;99.90;;;;;;5088754;28;20394;-77
2022/04/07 09:20:53;;;;;;;;;;;10.10;99.90;;;;;;5091165;28;19930;-78
2022/04/07 09:23:20;;;;;;;;;;;10.10;99.90;;;;;;5104790;28;19924;-77
2022/04/07 09:25:49;;;;;;;;;;;10.20;99.90;;;;;;5106643;28;19930;-67
2022/04/07 09:28:24;;;;;;;;;;;10.20;99.90;;;;;;5100110;28;19931;-68
2022/04/07 09:30:51;;;;;;;;;;;10.20;99.90;;;;;;5088537;28;20378;-67
2022/04/07 09:33:25;;;;;;;;;;;10.20;99.90;;;;;;5082520;28;19931;-67
2022/04/07 09:35:59;;;;;;;;;;;10.30;99.90;;;;;;5103946;28;19924;-67
2022/04/07 09:38:26;;;;;;;;;;;10.40;99.90;;;;;;5098074;28;20395;-67
2022/04/07 09:40:53;;;;;;;;;;;10.50;99.90;;;;;;5080548;28;19924;-67
2022/04/07 09:43:26;;;;;;;;;;;10.60;99.90;;;;;;5102428;28;19954;-67
2022/04/07 09:45:54;;;;;;;;;;;10.80;99.90;;;;;;5104614;28;19967;-66
2022/04/07 09:48:34;;;;;;;;;;;11.00;99.90;;;;;;5108886;28;20342;-67
2022/04/07 09:51:02;;;;;;;;;;;11.10;99.90;;;;;;5106413;28;20397;-68
2022/04/07 09:53:39;;;;;;;;;;;11.10;99.90;;;;;;5092628;28;19947;-68
2022/04/07 09:56:06;;;;;;;;;;;11.20;99.90;;;;;;5109460;27;20343;-67
2022/04/07 09:58:34;;;;;;;;;;;11.30;99.90;;;;;;5114452;27;19933;-67
2022/04/07 10:01:04;;;;;;;;;;;11.40;99.90;;;;;;5099946;27;19924;-67
2022/04/07 10:03:32;;;;;;;;;;;11.60;99.90;;;;;;5091817;28;20325;-68
2022/04/07 10:05:58;;;;;;;;;;;11.60;99.90;;;;;;5082024;28;20022;-68
2022/04/07 10:08:26;;;;;;;;;;;11.60;99.90;;;;;;5104649;27;20362;-68
2022/04/07 10:10:53;;;;;;;;;;;11.50;99.90;;;;;;5109491;27;19924;-67
2022/04/07 10:13:20;;;;;;;;;;;11.60;99.90;;;;;;5104159;28;19924;-67
2022/04/07 10:15:49;;;;;;;;;;;11.70;99.90;;;;;;5100851;27;19923;-67
2022/04/07 10:18:19;;;;;;;;;;;11.80;99.90;;;;;;5097324;27;19958;-67
2022/04/07 10:20:48;;;;;;;;;;;11.90;99.90;;;;;;5104936;28;19932;-67
2022/04/07 10:23:22;;;;;;;;;;;12.10;99.90;;;;;;5106261;27;20396;-66
2022/04/07 10:25:50;;;;;;;;;;;12.30;99.90;;;;;;5102297;27;19924;-67
2022/04/07 10:28:17;;;;;;;;;;;12.70;99.90;;;;;;5084455;28;19936;-67
2022/04/07 10:30:51;;;;;;;;;;;13.00;99.90;;;;;;5112166;27;19924;-67
2022/04/07 10:33:34;;;;;;;;;;;12.90;99.90;;;;;;5114123;27;20457;-67
2022/04/07 10:36:06;;;;;;;;;;;12.80;99.90;;;;;;5105493;27;20310;-68
2022/04/07 10:38:37;;;;;;;;;;;12.80;99.90;;;;;;5087291;28;19924;-67
2022/04/07 10:41:04;;;;;;;;;;;13.00;99.90;;;;;;5088597;27;19974;-67
2022/04/07 10:43:31;;;;;;;;;;;13.10;99.90;;;;;;5108627;27;19958;-67
2022/04/07 10:46:11;;;;;;;;;;;13.10;99.90;;;;;;5110164;27;19928;-67
2022/04/07 10:48:47;;;;;;;;;;;13.00;99.90;;;;;;5100961;27;19923;-67
2022/04/07 10:51:14;;;;;;;;;;;12.90;99.90;;;;;;5113893;27;19931;-67
2022/04/07 10:53:52;;;;;;;;;;;13.00;99.90;;;;;;5089726;27;19959;-67
2022/04/07 10:56:32;;;;;;;;;;;13.00;99.90;;;;;;5103552;27;20391;-67
2022/04/07 10:59:11;;;;;;;;;;;12.80;99.90;;;;;;5111697;27;19924;-67
2022/04/07 11:01:38;;;;;;;;;;;12.80;99.90;;;;;;5093901;28;19927;-68
2022/04/07 11:04:20;;;;;;;;;;;12.80;99.90;;;;;;5103259;28;19969;-67
2022/04/07 11:07:15;;;;;;;;;;;12.70;99.90;;;;;;5108043;27;19930;-67
2022/04/07 11:09:46;;;;;;;;;;;12.80;99.90;;;;;;5104262;27;20437;-67
2022/04/07 11:12:20;;;;;;;;;;;12.90;99.90;;;;;;5101302;27;20019;-67
2022/04/07 11:14:47;;;;;;;;;;;13.20;99.90;;;;;;5116177;27;20002;-66
2022/04/07 11:17:22;;;;;;;;;;;13.40;99.90;;;;;;5111124;27;19928;-67
2022/04/07 11:19:50;;;;;;;;;;;13.40;99.90;;;;;;5112929;27;20375;-67
2022/04/07 11:22:22;;;;;;;;;;;13.50;99.90;;;;;;5112616;27;19931;-67
2022/04/07 11:24:54;;;;;;;;;;;13.60;99.90;;;;;;5088236;28;19924;-67
2022/04/07 11:27:42;;;;;;;;;;;13.60;99.90;;;;;;5098493;27;19923;-68
2022/04/07 11:30:09;;;;;;;;;;;13.60;99.90;;;;;;5105187;27;20555;-67
2022/04/07 11:32:38;;;;;;;;;;;13.50;99.90;;;;;;5115573;27;20279;-67
2022/04/07 11:35:12;;;;;;;;;;;13.50;99.90;;;;;;5103699;27;20018;-67
2022/04/07 11:37:40;;;;;;;;;;;13.30;99.90;;;;;;5096127;27;20003;-67
2022/04/07 11:40:07;;;;;;;;;;;13.50;99.90;;;;;;5101603;27;19928;-67
2022/04/07 11:42:34;;;;;;;;;;;13.70;99.90;;;;;;5110187;27;19924;-67
2022/04/07 11:45:01;;;;;;;;;;;13.60;99.90;;;;;;5105429;27;20539;-67
2022/04/07 11:47:47;;;;;;;;;;;13.70;99.90;;;;;;5115400;27;19946;-68
2022/04/07 11:50:14;;;;;;;;;;;13.90;99.90;;;;;;5112828;27;19923;-67
2022/04/07 11:52:41;;;;;;;;;;;14.20;99.90;;;;;;5102207;28;20593;-67
2022/04/07 11:55:08;;;;;;;;;;;14.50;99.90;;;;;;5105692;27;19931;-67
2022/04/07 11:57:35;;;;;;;;;;;14.70;99.90;;;;;;5103953;27;19924;-67
2022/04/07 12:00:04;;;;;;;;;;;14.90;99.90;;;;;;5102279;27;19930;-67
2022/04/07 12:02:31;;;;;;;;;;;15.20;99.90;;;;;;5104139;27;20427;-67
2022/04/07 12:04:59;;;;;;;;;;;15.40;99.90;;;;;;5103881;27;19928;-67
2022/04/07 12:07:26;;;;;;;;;;;15.30;99.90;;;;;;5110388;27;20540;-67
2022/04/07 12:09:56;;;;;;;;;;;15.20;99.90;;;;;;5096978;28;19924;-69
2022/04/07 12:12:23;;;;;;;;;;;15.10;99.90;;;;;;5105163;27;19984;-68
2022/04/07 12:14:51;;;;;;;;;;;15.20;99.90;;;;;;5105980;27;20009;-67
2022/04/07 12:17:17;;;;;;;;;;;15.10;99.90;;;;;;5110351;27;20354;-67
2022/04/07 12:19:45;;;;;;;;;;;15.00;99.90;;;;;;5095721;27;20471;-69
2022/04/07 12:22:13;;;;;;;;;;;14.90;99.90;;;;;;5113067;27;19928;-67
2022/04/07 12:24:57;;;;;;;;;;;15.00;99.90;;;;;;5083693;28;19931;-67
2022/04/07 12:27:25;;;;;;;;;;;15.30;99.90;;;;;;5106076;27;19932;-67
2022/04/07 12:29:52;;;;;;;;;;;15.60;99.90;;;;;;5101825;27;20438;-67
2022/04/07 12:32:18;;;;;;;;;;;15.50;99.90;;;;;;5079511;27;19932;-66
2022/04/07 12:34:51;;;;;;;;;;;15.50;99.90;;;;;;5101745;27;19924;-67
2022/04/07 12:37:28;;;;;;;;;;;15.60;99.90;;;;;;5095351;28;19927;-66
2022/04/07 12:39:54;;;;;;;;;;;15.90;99.90;;;;;;5099555;27;20413;-67
2022/04/07 12:42:21;;;;;;;;;;;16.20;99.90;;;;;;5097191;27;19930;-67
2022/04/07 12:44:49;;;;;;;;;;;16.60;99.90;;;;;;5090367;28;19959;-67
2022/04/07 12:47:17;;;;;;;;;;;17.10;99.90;;;;;;5098465;27;19930;-67
2022/04/07 12:49:53;;;;;;;;;;;17.50;99.90;;;;;;5100560;28;19928;-67
2022/04/07 12:52:21;;;;;;;;;;;17.70;99.90;;;;;;5092097;28;19973;-66
2022/04/07 12:54:58;;;;;;;;;;;17.20;99.90;;;;;;5098042;28;20349;-68
2022/04/07 12:57:34;;;;;;;;;;;16.60;99.90;;;;;;5109777;28;19977;-70
2022/04/07 13:00:21;;;;;;;;;;;16.10;99.90;;;;;;5112139;28;19924;-66
2022/04/07 13:02:54;;;;;;;;;;;15.40;99.90;;;;;;5101929;28;20382;-66
2022/04/07 13:05:23;;;;;;;;;;;14.80;99.90;;;;;;5101725;28;19946;-66
2022/04/07 13:07:51;;;;;;;;;;;14.50;99.90;;;;;;5100713;28;19932;-66
2022/04/07 13:10:18;;;;;;;;;;;14.30;99.90;;;;;;5083996;28;19928;-65
2022/04/07 13:12:47;;;;;;;;;;;14.20;99.90;;;;;;5103461;28;19930;-65
2022/04/07 13:15:14;;;;;;;;;;;14.10;99.90;;;;;;5106690;28;19924;-66
2022/04/07 13:17:41;;;;;;;;;;;13.70;99.90;;;;;;5112485;28;19924;-67
2022/04/07 13:20:08;;;;;;;;;;;13.30;99.90;;;;;;5098359;28;20019;-68
2022/04/07 13:22:35;;;;;;;;;;;12.60;99.90;;;;;;5102807;28;20018;-69
2022/04/07 13:25:02;;;;;;;;;;;11.90;99.90;;;;;;5086550;28;20392;-69
2022/04/07 13:27:29;;;;;;;;;;;11.50;99.90;;;;;;5100641;28;19928;-70
2022/04/07 13:29:55;;;;;;;;;;;11.20;99.90;;;;;;5102535;28;19930;-72
2022/04/07 13:32:24;;;;;;;;;;;10.90;99.90;;;;;;5101390;27;20023;-73
2022/04/07 13:34:57;;;;;;;;;;;10.40;99.90;;;;;;5094998;27;19932;-75
2022/04/07 13:37:24;;;;;;;;;;;10.00;99.90;;;;;;5100011;28;19924;-75
2022/04/07 13:39:52;;;;;;;;;;;9.80;99.90;;;;;;5111369;27;20022;-75
2022/04/07 13:42:39;;;;;;;;;;;9.70;99.90;;;;;;5103663;28;19927;-76
2022/04/07 13:45:08;;;;;;;;;;;9.70;99.90;;;;;;5084465;28;20345;-81
2022/04/07 13:47:35;;;;;;;;;;;9.90;99.90;;;;;;5098603;28;20394;-79
2022/04/07 13:50:02;;;;;;;;;;;10.20;99.90;;;;;;5107491;28;20065;-79
2022/04/07 13:52:29;;;;;;;;;;;10.40;99.90;;;;;;5108025;28;19954;-78
2022/04/07 13:54:55;;;;;;;;;;;10.50;99.90;;;;;;5108840;27;19934;-80
2022/04/07 13:57:24;;;;;;;;;;;10.70;99.90;;;;;;5102859;28;19963;-80
2022/04/07 13:59:51;;;;;;;;;;;10.80;99.90;;;;;;5107793;28;19924;-78
2022/04/07 14:02:18;;;;;;;;;;;10.90;99.90;;;;;;5103484;27;19928;-77
2022/04/07 14:04:51;;;;;;;;;;;11.20;99.90;;;;;;5114727;28;19978;-77
2022/04/07 14:07:18;;;;;;;;;;;11.40;99.90;;;;;;5106482;27;20328;-79
2022/04/07 14:09:44;;;;;;;;;;;11.50;99.90;;;;;;5102670;27;20011;-77
2022/04/07 14:12:11;;;;;;;;;;;11.50;99.90;;;;;;5106399;28;20015;-78
2022/04/07 14:14:38;;;;;;;;;;;11.40;99.90;;;;;;5110201;28;19931;-78
2022/04/07 14:17:05;;;;;;;;;;;11.40;99.90;;;;;;5112233;27;19963;-77
2022/04/07 14:19:31;;;;;;;;;;;11.50;99.90;;;;;;5104168;28;19931;-81
2022/04/07 14:21:58;;;;;;;;;;;12.00;99.90;;;;;;5104765;28;19932;-78
2022/04/07 14:24:25;;;;;;;;;;;12.60;99.90;;;;;;5104496;28;19927;-75
2022/04/07 14:26:55;;;;;;;;;;;13.30;99.90;;;;;;5112455;27;19923;-75
2022/04/07 14:29:22;;;;;;;;;;;14.10;99.90;;;;;;5102536;27;19932;-74
2022/04/07 14:31:49;;;;;;;;;;;14.70;99.90;;;;;;5101731;28;20073;-72
2022/04/07 14:34:21;;;;;;;;;;;15.20;99.90;;;;;;5101384;27;19932;-74